createdAt,value
2019-05-11T00:00:16.264Z,99433.74
2019-05-11T00:00:52.704Z,99437.17
2019-05-11T00:01:28.658Z,99434.12
2019-05-11T00:02:04.637Z,99438.82
2019-05-11T00:02:40.297Z,99436.98
2019-05-11T00:03:15.905Z,99438.94
2019-05-11T00:03:52.220Z,99439.11
2019-05-11T00:04:28.905Z,99439.95
2019-05-11T00:05:04.922Z,99445.81
2019-05-11T00:05:40.573Z,99439.31
2019-05-11T00:06:16.602Z,99445.43
2019-05-11T00:06:52.308Z,99449.70
2019-05-11T00:07:28.327Z,99448.48
2019-05-11T00:08:04.249Z,99450.05
2019-05-11T00:08:39.773Z,99449.58
2019-05-11T00:09:15.381Z,99449.88
2019-05-11T00:09:57.992Z,99454.61
2019-05-11T00:10:29.234Z,99455.36
2019-05-11T00:11:04.680Z,99455.36
2019-05-11T00:11:40.343Z,99454.32
2019-05-11T00:12:16.267Z,99457.46
2019-05-11T00:12:53.350Z,99456.83
2019-05-11T00:13:28.815Z,99459.34
2019-05-11T00:14:05.118Z,99457.37
2019-05-11T00:14:41.082Z,99457.74
2019-05-11T00:15:16.717Z,99457.83
2019-05-11T00:15:53.170Z,99462.19
2019-05-11T00:16:28.816Z,99455.61
2019-05-11T00:17:05.123Z,99456.16
2019-05-11T00:17:41.242Z,99457.83
2019-05-11T00:18:17.924Z,99460.05
2019-05-11T00:18:53.770Z,99452.00
2019-05-11T00:19:29.683Z,99457.65
2019-05-11T00:20:05.469Z,99450.13
2019-05-11T00:20:41.921Z,99459.42
2019-05-11T00:21:18.588Z,99456.20
2019-05-11T00:21:54.627Z,99449.50
2019-05-11T00:22:31.625Z,99449.04
2019-05-11T00:23:07.302Z,99451.55
2019-05-11T00:23:43.245Z,99448.37
2019-05-11T00:24:19.815Z,99451.89
2019-05-11T00:24:55.896Z,99450.33
2019-05-11T00:25:32.102Z,99453.09
2019-05-11T00:26:08.053Z,99446.43
2019-05-11T00:26:43.695Z,99450.08
2019-05-11T00:27:20.009Z,99451.30
2019-05-11T00:27:55.895Z,99453.14
2019-05-11T00:28:32.821Z,99445.17
2019-05-11T00:29:08.440Z,99450.45
2019-05-11T00:29:44.354Z,99450.28
2019-05-11T00:30:20.069Z,99460.66
2019-05-11T00:30:56.406Z,99444.77
2019-05-11T00:31:33.009Z,99449.41
2019-05-11T00:32:09.232Z,99453.18
2019-05-11T00:32:44.728Z,99450.00
2019-05-11T00:33:20.480Z,99446.89
2019-05-11T00:33:56.821Z,99450.00
2019-05-11T00:34:32.514Z,99454.90
2019-05-11T00:35:08.742Z,99446.94
2019-05-11T00:35:44.979Z,99444.88
2019-05-11T00:36:21.309Z,99438.30
2019-05-11T00:36:57.138Z,99439.31
2019-05-11T00:37:32.965Z,99443.41
2019-05-11T00:38:08.964Z,99439.52
2019-05-11T00:38:45.005Z,99439.95
2019-05-11T00:39:20.704Z,99433.34
2019-05-11T00:39:56.223Z,99432.16
2019-05-11T00:40:31.897Z,99429.91
2019-05-11T00:41:07.528Z,99386.14
2019-05-11T00:41:43.810Z,99423.81
2019-05-11T00:42:19.955Z,99420.58
2019-05-11T00:42:55.632Z,99430.04
2019-05-11T00:43:31.371Z,99425.02
2019-05-11T00:44:07.458Z,99426.69
2019-05-11T00:44:42.870Z,99426.69
2019-05-11T00:45:18.534Z,99422.42
2019-05-11T00:45:54.237Z,99415.64
2019-05-11T00:46:29.860Z,99412.23
2019-05-11T00:47:05.317Z,99407.22
2019-05-11T00:47:41.285Z,99406.30
2019-05-11T00:48:17.515Z,99402.41
2019-05-11T00:48:53.620Z,99405.92
2019-05-11T00:49:29.485Z,99408.43
2019-05-11T00:50:06.593Z,99405.08
2019-05-11T00:50:42.394Z,99411.48
2019-05-11T00:51:18.113Z,99414.83
2019-05-11T00:51:54.758Z,99411.02
2019-05-11T00:52:30.804Z,99410.73
2019-05-11T00:53:06.431Z,99410.56
2019-05-11T00:53:42.069Z,99405.75
2019-05-11T00:54:18.120Z,99403.86
2019-05-11T00:54:55.019Z,99399.52
2019-05-11T00:55:31.340Z,99397.38
2019-05-11T00:56:07.560Z,99398.52
2019-05-11T00:56:43.115Z,99395.16
2019-05-11T00:57:19.083Z,99394.03
2019-05-11T00:57:55.214Z,99394.87
2019-05-11T00:58:30.890Z,99392.02
2019-05-11T00:59:19.860Z,99386.98
2019-05-11T00:59:43.992Z,99384.48
2019-05-11T01:00:20.161Z,99384.56
2019-05-11T01:00:56.424Z,99382.55
2019-05-11T01:01:32.755Z,99378.65
2019-05-11T01:02:08.973Z,99373.27
2019-05-11T01:02:44.602Z,99380.12
2019-05-11T01:03:20.891Z,99378.45
2019-05-11T01:03:57.118Z,99374.76
2019-05-11T01:04:32.820Z,99371.78
2019-05-11T01:05:08.653Z,99367.89
2019-05-11T01:05:45.199Z,99364.09
2019-05-11T01:06:21.663Z,99368.52
2019-05-11T01:06:57.554Z,99324.67
2019-05-11T01:07:33.201Z,99364.37
2019-05-11T01:08:08.846Z,99361.39
2019-05-11T01:08:44.905Z,99351.93
2019-05-11T01:09:22.486Z,99363.23
2019-05-11T01:09:58.123Z,99360.10
2019-05-11T01:10:41.595Z,99360.28
2019-05-11T01:11:11.402Z,99358.61
2019-05-11T01:11:47.456Z,99362.51
2019-05-11T01:12:23.139Z,99358.81
2019-05-11T01:12:59.263Z,99361.03
2019-05-11T01:13:34.805Z,99362.41
2019-05-11T01:14:10.770Z,99365.77
2019-05-11T01:14:46.425Z,99362.63
2019-05-11T01:15:22.295Z,99368.27
2019-05-11T01:15:58.200Z,99367.91
2019-05-11T01:16:34.148Z,99364.84
2019-05-11T01:17:10.711Z,99366.52
2019-05-11T01:17:46.331Z,99373.27
2019-05-11T01:18:22.317Z,99372.80
2019-05-11T01:18:58.488Z,99369.75
2019-05-11T01:19:35.004Z,99366.62
2019-05-11T01:20:10.848Z,99373.27
2019-05-11T01:20:46.284Z,99371.88
2019-05-11T01:21:22.449Z,99374.67
2019-05-11T01:21:58.122Z,99374.38
2019-05-11T01:22:33.857Z,99372.72
2019-05-11T01:23:09.275Z,99370.67
2019-05-11T01:23:44.973Z,99372.25
2019-05-11T01:24:20.987Z,99363.53
2019-05-11T01:24:57.894Z,99371.09
2019-05-11T01:25:33.370Z,99370.55
2019-05-11T01:26:09.403Z,99364.22
2019-05-11T01:26:45.031Z,99362.38
2019-05-11T01:27:20.751Z,99353.77
2019-05-11T01:27:56.283Z,99363.86
2019-05-11T01:28:32.254Z,99360.27
2019-05-11T01:29:07.881Z,99356.84
2019-05-11T01:29:43.494Z,99354.33
2019-05-11T01:30:19.259Z,99343.77
2019-05-11T01:30:55.030Z,99353.22
2019-05-11T01:31:31.113Z,99346.74
2019-05-11T01:32:06.741Z,99342.64
2019-05-11T01:32:42.201Z,99345.06
2019-05-11T01:33:18.326Z,99351.17
2019-05-11T01:33:54.371Z,99338.86
2019-05-11T01:34:30.065Z,99341.62
2019-05-11T01:35:05.846Z,99342.27
2019-05-11T01:35:41.472Z,99344.86
2019-05-11T01:36:17.244Z,99344.86
2019-05-11T01:36:53.432Z,99343.31
2019-05-11T01:37:29.141Z,99342.12
2019-05-11T01:38:04.807Z,99335.00
2019-05-11T01:38:40.551Z,99339.73
2019-05-11T01:39:17.274Z,99338.69
2019-05-11T01:39:53.096Z,99332.88
2019-05-11T01:40:28.739Z,99337.92
2019-05-11T01:41:04.390Z,99337.92
2019-05-11T01:41:40.017Z,99338.66
2019-05-11T01:42:15.481Z,99339.33
2019-05-11T01:42:51.144Z,99341.33
2019-05-11T01:43:26.789Z,99343.56
2019-05-11T01:44:02.826Z,99340.70
2019-05-11T01:44:38.984Z,99343.03
2019-05-11T01:45:14.805Z,99335.96
2019-05-11T01:45:51.225Z,99351.14
2019-05-11T01:46:26.975Z,99351.14
2019-05-11T01:47:03.071Z,99352.71
2019-05-11T01:47:38.696Z,99353.33
2019-05-11T01:48:15.424Z,99346.27
2019-05-11T01:48:51.156Z,99346.27
2019-05-11T01:49:26.801Z,99353.69
2019-05-11T01:50:02.457Z,99354.23
2019-05-11T01:50:38.111Z,99354.23
2019-05-11T01:51:13.734Z,99353.09
2019-05-11T01:51:52.596Z,99359.69
2019-05-11T01:52:28.252Z,99323.94
2019-05-11T01:53:03.896Z,99365.79
2019-05-11T01:53:39.524Z,99366.17
2019-05-11T01:54:15.023Z,99368.38
2019-05-11T01:54:50.762Z,99362.06
2019-05-11T01:55:26.523Z,99367.52
2019-05-11T01:56:02.868Z,99367.52
2019-05-11T01:56:38.304Z,99352.66
2019-05-11T01:57:13.948Z,99359.36
2019-05-11T01:57:51.351Z,99355.55
2019-05-11T01:58:26.987Z,99353.98
2019-05-11T01:59:02.438Z,99353.98
2019-05-11T01:59:38.673Z,99348.91
2019-05-11T02:00:14.710Z,99343.56
2019-05-11T02:00:50.770Z,99343.56
2019-05-11T02:01:26.732Z,99340.43
2019-05-11T02:02:02.794Z,99340.13
2019-05-11T02:02:38.445Z,99331.39
2019-05-11T02:03:14.446Z,99328.31
2019-05-11T02:03:49.927Z,99331.74
2019-05-11T02:04:25.984Z,99327.02
2019-05-11T02:05:19.767Z,99327.50
2019-05-11T02:05:55.259Z,99324.40
2019-05-11T02:06:30.882Z,99320.59
2019-05-11T02:07:06.575Z,99317.73
2019-05-11T02:07:42.193Z,99310.66
2019-05-11T02:08:17.660Z,99315.68
2019-05-11T02:08:53.798Z,99311.31
2019-05-11T02:09:29.430Z,99306.20
2019-05-11T02:10:06.101Z,99304.92
2019-05-11T02:10:41.821Z,99304.92
2019-05-11T02:11:17.821Z,99308.31
2019-05-11T02:11:53.496Z,99309.34
2019-05-11T02:12:30.462Z,99302.68
2019-05-11T02:13:06.161Z,99308.70
2019-05-11T02:13:41.804Z,99306.64
2019-05-11T02:14:17.420Z,99265.80
2019-05-11T02:14:53.087Z,99307.56
2019-05-11T02:15:28.602Z,99306.42
2019-05-11T02:16:04.451Z,99307.25
2019-05-11T02:16:40.410Z,99303.45
2019-05-11T02:17:16.087Z,99311.41
2019-05-11T02:17:51.590Z,99303.45
2019-05-11T02:18:27.374Z,99305.77
2019-05-11T02:19:03.064Z,99298.69
2019-05-11T02:19:39.014Z,99295.37
2019-05-11T02:20:14.849Z,99297.58
2019-05-11T02:20:50.568Z,99291.11
2019-05-11T02:21:26.242Z,99297.66
2019-05-11T02:22:02.199Z,99287.75
2019-05-11T02:22:37.658Z,99286.16
2019-05-11T02:23:13.385Z,99284.89
2019-05-11T02:23:49.756Z,99281.93
2019-05-11T02:24:25.782Z,99276.94
2019-05-11T02:25:01.507Z,99277.02
2019-05-11T02:25:37.140Z,99276.86
2019-05-11T02:26:13.288Z,99279.98
2019-05-11T02:26:48.985Z,99279.61
2019-05-11T02:27:24.504Z,99276.75
2019-05-11T02:28:00.145Z,99280.91
2019-05-11T02:28:36.260Z,99278.53
2019-05-11T02:29:11.901Z,99273.59
2019-05-11T02:29:47.698Z,99273.94
2019-05-11T02:30:23.495Z,99283.41
2019-05-11T02:30:59.570Z,99276.91
2019-05-11T02:31:35.978Z,99270.97
2019-05-11T02:32:11.431Z,99273.94
2019-05-11T02:32:47.116Z,99278.44
2019-05-11T02:33:23.168Z,99281.02
2019-05-11T02:33:58.811Z,99278.58
2019-05-11T02:34:34.247Z,99283.91
2019-05-11T02:35:10.206Z,99280.41
2019-05-11T02:35:46.506Z,99285.81
2019-05-11T02:36:22.213Z,99288.70
2019-05-11T02:36:57.794Z,99292.89
2019-05-11T02:37:33.462Z,99290.08
2019-05-11T02:38:09.463Z,99292.67
2019-05-11T02:38:45.191Z,99290.99
2019-05-11T02:39:20.699Z,99294.50
2019-05-11T02:39:56.840Z,99298.65
2019-05-11T02:40:33.163Z,99298.95
2019-05-11T02:41:09.261Z,99301.92
2019-05-11T02:41:44.722Z,99299.33
2019-05-11T02:42:20.429Z,99304.59
2019-05-11T02:42:56.119Z,99298.27
2019-05-11T02:43:32.014Z,99305.69
2019-05-11T02:44:07.760Z,99295.87
2019-05-11T02:44:43.491Z,99289.63
2019-05-11T02:45:40.686Z,99289.63
2019-05-11T02:46:17.504Z,99289.44
2019-05-11T02:46:53.521Z,99283.42
2019-05-11T02:47:29.642Z,99267.20
2019-05-11T02:48:05.302Z,99275.04
2019-05-11T02:48:40.848Z,99272.91
2019-05-11T02:49:16.483Z,99264.08
2019-05-11T02:49:52.302Z,99268.08
2019-05-11T02:50:28.315Z,99264.30
2019-05-11T02:51:04.073Z,99255.89
2019-05-11T02:51:40.469Z,99250.63
2019-05-11T02:52:17.110Z,99255.24
2019-05-11T02:52:53.459Z,99247.48
2019-05-11T02:53:31.021Z,99250.91
2019-05-11T02:54:07.557Z,99239.41
2019-05-11T02:54:44.098Z,99241.16
2019-05-11T02:55:19.722Z,99238.80
2019-05-11T02:55:55.756Z,99238.52
2019-05-11T02:56:31.396Z,99238.06
2019-05-11T02:57:07.465Z,99239.44
2019-05-11T02:57:43.082Z,99237.39
2019-05-11T02:58:18.575Z,99239.14
2019-05-11T02:58:54.534Z,99237.73
2019-05-11T02:59:30.493Z,99237.44
2019-05-11T03:00:08.376Z,99234.04
2019-05-11T03:00:45.056Z,99234.50
2019-05-11T03:01:20.897Z,99235.06
2019-05-11T03:01:56.610Z,99234.53
2019-05-11T03:02:32.662Z,99240.70
2019-05-11T03:03:08.348Z,99227.05
2019-05-11T03:03:43.985Z,99236.86
2019-05-11T03:04:20.733Z,99233.36
2019-05-11T03:04:57.120Z,99240.28
2019-05-11T03:05:32.575Z,99241.20
2019-05-11T03:06:08.214Z,99244.33
2019-05-11T03:06:43.838Z,99250.80
2019-05-11T03:07:19.866Z,99245.81
2019-05-11T03:07:55.732Z,99254.06
2019-05-11T03:08:31.413Z,99252.70
2019-05-11T03:09:07.940Z,99246.61
2019-05-11T03:09:43.928Z,99241.88
2019-05-11T03:10:19.456Z,99243.91
2019-05-11T03:10:55.165Z,99240.17
2019-05-11T03:11:30.822Z,99247.79
2019-05-11T03:12:06.442Z,99244.44
2019-05-11T03:12:41.874Z,99241.02
2019-05-11T03:13:17.855Z,99241.02
2019-05-11T03:13:54.829Z,99240.09
2019-05-11T03:14:30.510Z,99239.15
2019-05-11T03:15:06.721Z,99241.63
2019-05-11T03:15:42.350Z,99247.18
2019-05-11T03:16:18.475Z,99244.21
2019-05-11T03:17:10.817Z,99248.13
2019-05-11T03:17:46.490Z,99248.13
2019-05-11T03:18:22.432Z,99241.47
2019-05-11T03:18:58.537Z,99248.44
2019-05-11T03:19:34.120Z,99246.64
2019-05-11T03:20:09.886Z,99244.51
2019-05-11T03:20:45.918Z,99244.47
2019-05-11T03:21:21.611Z,99246.03
2019-05-11T03:21:57.628Z,99243.55
2019-05-11T03:22:33.614Z,99234.58
2019-05-11T03:23:09.585Z,99235.95
2019-05-11T03:23:45.500Z,99233.89
2019-05-11T03:24:24.036Z,99228.94
2019-05-11T03:24:58.393Z,99227.91
2019-05-11T03:25:34.476Z,99220.75
2019-05-11T03:26:10.434Z,99216.64
2019-05-11T03:26:46.277Z,99216.95
2019-05-11T03:27:21.966Z,99207.72
2019-05-11T03:27:57.578Z,99209.47
2019-05-11T03:28:33.217Z,99201.89
2019-05-11T03:29:08.916Z,99198.31
2019-05-11T03:29:45.191Z,99195.96
2019-05-11T03:30:20.902Z,99194.66
2019-05-11T03:30:56.766Z,99190.97
2019-05-11T03:31:32.298Z,99194.61
2019-05-11T03:32:08.377Z,99192.00
2019-05-11T03:32:43.957Z,99193.67
2019-05-11T03:33:19.651Z,99195.39
2019-05-11T03:33:55.581Z,99197.25
2019-05-11T03:34:31.369Z,99194.63
2019-05-11T03:35:07.805Z,99198.89
2019-05-11T03:35:43.444Z,99196.38
2019-05-11T03:36:19.312Z,99196.41
2019-05-11T03:36:55.019Z,99196.84
2019-05-11T03:37:30.670Z,99196.98
2019-05-11T03:38:06.295Z,99198.25
2019-05-11T03:38:41.777Z,99195.80
2019-05-11T03:39:17.433Z,99195.39
2019-05-11T03:39:53.393Z,99201.52
2019-05-11T03:40:29.027Z,99194.42
2019-05-11T03:41:05.034Z,99193.99
2019-05-11T03:41:41.010Z,99194.48
2019-05-11T03:42:16.733Z,99195.66
2019-05-11T03:42:52.393Z,99187.97
2019-05-11T03:43:28.214Z,99187.24
2019-05-11T03:44:03.890Z,99190.61
2019-05-11T03:44:39.499Z,99186.41
2019-05-11T03:45:15.343Z,99187.66
2019-05-11T03:45:51.373Z,99184.83
2019-05-11T03:46:27.863Z,99185.44
2019-05-11T03:47:03.523Z,99181.27
2019-05-11T03:47:39.188Z,99185.34
2019-05-11T03:48:14.701Z,99189.27
2019-05-11T03:48:50.426Z,99185.39
2019-05-11T03:49:26.122Z,99176.02
2019-05-11T03:50:02.109Z,99176.02
2019-05-11T03:50:37.635Z,99175.98
2019-05-11T03:51:13.600Z,99175.14
2019-05-11T03:51:49.281Z,99178.45
2019-05-11T03:52:25.275Z,99178.70
2019-05-11T03:53:01.174Z,99187.59
2019-05-11T03:53:37.163Z,99185.73
2019-05-11T03:54:13.168Z,99185.73
2019-05-11T03:54:49.361Z,99185.55
2019-05-11T03:55:25.305Z,99188.84
2019-05-11T03:56:00.895Z,99186.95
2019-05-11T03:56:36.559Z,99186.49
2019-05-11T03:57:12.675Z,99185.34
2019-05-11T03:57:48.158Z,99185.58
2019-05-11T03:58:26.196Z,99186.23
2019-05-11T03:59:01.226Z,99180.30
2019-05-11T03:59:36.909Z,99174.25
2019-05-11T04:00:13.082Z,99170.64
2019-05-11T04:00:49.174Z,99172.02
2019-05-11T04:01:24.925Z,99160.27
2019-05-11T04:02:00.576Z,99164.68
2019-05-11T04:02:36.029Z,99162.09
2019-05-11T04:03:11.701Z,99159.28
2019-05-11T04:03:47.405Z,99150.50
2019-05-11T04:04:23.388Z,99151.98
2019-05-11T04:04:59.265Z,99136.36
2019-05-11T04:05:34.883Z,99134.61
2019-05-11T04:06:10.533Z,99132.05
2019-05-11T04:06:46.144Z,99127.78
2019-05-11T04:07:21.764Z,99127.78
2019-05-11T04:07:57.711Z,99089.86
2019-05-11T04:08:33.346Z,99124.52
2019-05-11T04:09:09.396Z,99131.51
2019-05-11T04:09:44.837Z,99138.80
2019-05-11T04:10:24.924Z,99145.08
2019-05-11T04:10:58.032Z,99145.08
2019-05-11T04:11:33.681Z,99142.22
2019-05-11T04:12:09.113Z,99144.05
2019-05-11T04:12:45.105Z,99141.47
2019-05-11T04:13:21.179Z,99136.05
2019-05-11T04:13:56.825Z,99131.36
2019-05-11T04:14:32.767Z,99131.36
2019-05-11T04:15:08.497Z,99132.08
2019-05-11T04:15:44.516Z,99132.33
2019-05-11T04:16:20.275Z,99132.27
2019-05-11T04:16:55.769Z,99128.82
2019-05-11T04:17:31.722Z,99132.89
2019-05-11T04:18:07.479Z,99139.28
2019-05-11T04:18:43.103Z,99136.39
2019-05-11T04:19:18.599Z,99142.84
2019-05-11T04:19:54.255Z,99144.32
2019-05-11T04:20:29.908Z,99143.83
2019-05-11T04:21:05.574Z,99138.77
2019-05-11T04:21:41.841Z,99148.66
2019-05-11T04:22:17.512Z,99147.05
2019-05-11T04:22:53.630Z,99143.48
2019-05-11T04:23:29.341Z,99139.71
2019-05-11T04:24:04.823Z,99131.21
2019-05-11T04:24:40.823Z,99135.87
2019-05-11T04:25:16.454Z,99133.53
2019-05-11T04:25:52.139Z,99132.24
2019-05-11T04:26:27.631Z,99135.17
2019-05-11T04:27:03.714Z,99132.48
2019-05-11T04:27:39.382Z,99132.41
2019-05-11T04:28:15.019Z,99134.08
2019-05-11T04:28:51.008Z,99128.95
2019-05-11T04:29:27.103Z,99135.13
2019-05-11T04:30:02.747Z,99134.53
2019-05-11T04:30:38.414Z,99137.95
2019-05-11T04:31:13.866Z,99139.81
2019-05-11T04:31:49.612Z,99108.14
2019-05-11T04:32:25.357Z,99108.14
2019-05-11T04:33:01.540Z,99103.84
2019-05-11T04:33:37.344Z,99141.55
2019-05-11T04:34:13.490Z,99137.58
2019-05-11T04:34:50.884Z,99137.58
2019-05-11T04:35:26.584Z,99132.67
2019-05-11T04:36:02.063Z,99132.08
2019-05-11T04:36:37.705Z,99131.52
2019-05-11T04:37:13.344Z,99137.31
2019-05-11T04:37:49.039Z,99141.52
2019-05-11T04:38:24.575Z,99143.70
2019-05-11T04:39:00.246Z,99146.72
2019-05-11T04:39:36.002Z,99151.36
2019-05-11T04:40:12.028Z,99148.20
2019-05-11T04:40:47.520Z,99146.99
2019-05-11T04:41:23.221Z,99142.73
2019-05-11T04:41:58.875Z,99143.81
2019-05-11T04:42:53.256Z,99141.84
2019-05-11T04:43:12.222Z,99142.22
2019-05-11T04:43:47.967Z,99136.72
2019-05-11T04:44:23.706Z,99138.12
2019-05-11T04:44:59.344Z,99134.13
2019-05-11T04:45:34.797Z,99134.86
2019-05-11T04:46:10.509Z,99136.18
2019-05-11T04:46:46.207Z,99137.72
2019-05-11T04:47:21.929Z,99139.58
2019-05-11T04:47:57.409Z,99147.05
2019-05-11T04:48:33.032Z,99153.44
2019-05-11T04:49:08.658Z,99157.70
2019-05-11T04:49:44.841Z,99151.25
2019-05-11T04:50:20.462Z,99151.06
2019-05-11T04:50:56.155Z,99155.22
2019-05-11T04:51:31.891Z,99147.98
2019-05-11T04:52:07.549Z,99154.00
2019-05-11T04:52:43.062Z,99114.61
2019-05-11T04:53:18.914Z,99152.66
2019-05-11T04:53:54.556Z,99152.66
2019-05-11T04:54:30.193Z,99146.61
2019-05-11T04:55:05.781Z,99152.25
2019-05-11T04:55:41.410Z,99149.50
2019-05-11T04:56:17.180Z,99144.38
2019-05-11T04:56:52.878Z,99149.74
2019-05-11T04:57:28.376Z,99149.74
2019-05-11T04:58:04.372Z,99143.92
2019-05-11T04:58:40.333Z,99143.92
2019-05-11T04:59:16.009Z,99150.84
2019-05-11T04:59:51.777Z,99146.66
2019-05-11T05:00:27.474Z,99159.69
2019-05-11T05:01:03.461Z,99152.95
2019-05-11T05:01:39.097Z,99157.55
2019-05-11T05:02:14.548Z,99149.25
2019-05-11T05:02:50.233Z,99150.52
2019-05-11T05:03:39.740Z,99149.79
2019-05-11T05:04:13.400Z,99144.00
2019-05-11T05:04:40.377Z,99155.64
2019-05-11T05:05:16.171Z,99144.62
2019-05-11T05:05:51.890Z,99149.55
2019-05-11T05:06:28.027Z,99149.48
2019-05-11T05:07:05.380Z,99142.41
2019-05-11T05:07:48.089Z,99145.10
2019-05-11T05:08:21.067Z,99149.17
2019-05-11T05:08:58.232Z,99143.08
2019-05-11T05:09:36.051Z,99138.50
2019-05-11T05:10:13.955Z,99148.93
2019-05-11T05:10:52.613Z,99142.73
2019-05-11T05:11:30.427Z,99142.27
2019-05-11T05:12:08.462Z,99143.87
2019-05-11T05:12:50.794Z,99139.49
2019-05-11T05:13:23.452Z,99140.98
2019-05-11T05:14:02.208Z,99144.86
2019-05-11T05:14:33.771Z,99142.66
2019-05-11T05:15:09.658Z,99138.17
2019-05-11T05:15:45.679Z,99146.53
2019-05-11T05:16:21.795Z,99141.71
2019-05-11T05:16:57.379Z,99141.33
2019-05-11T05:17:33.098Z,99138.45
2019-05-11T05:18:09.104Z,99138.45
2019-05-11T05:18:44.790Z,99142.36
2019-05-11T05:19:20.841Z,99140.52
2019-05-11T05:19:56.642Z,99138.93
2019-05-11T05:20:32.325Z,99136.80
2019-05-11T05:21:08.343Z,99138.09
2019-05-11T05:21:43.835Z,99137.55
2019-05-11T05:22:19.595Z,99141.17
2019-05-11T05:22:55.650Z,99138.39
2019-05-11T05:23:31.661Z,99142.36
2019-05-11T05:24:07.135Z,99144.95
2019-05-11T05:24:43.179Z,99146.45
2019-05-11T05:25:19.372Z,99145.62
2019-05-11T05:25:55.513Z,99143.57
2019-05-11T05:26:31.755Z,99147.98
2019-05-11T05:27:07.397Z,99145.42
2019-05-11T05:27:43.714Z,99136.28
2019-05-11T05:28:19.395Z,99143.89
2019-05-11T05:28:54.921Z,99146.50
2019-05-11T05:29:30.571Z,99147.63
2019-05-11T05:30:06.863Z,99149.92
2019-05-11T05:30:42.702Z,99151.20
2019-05-11T05:31:18.502Z,99148.95
2019-05-11T05:31:55.007Z,99139.57
2019-05-11T05:32:31.819Z,99142.24
2019-05-11T05:33:07.460Z,99146.16
2019-05-11T05:33:42.907Z,99135.55
2019-05-11T05:34:18.615Z,99127.58
2019-05-11T05:34:54.749Z,99129.88
2019-05-11T05:35:30.457Z,99119.44
2019-05-11T05:36:05.923Z,99132.10
2019-05-11T05:36:41.975Z,99129.03
2019-05-11T05:37:18.116Z,99129.31
2019-05-11T05:37:54.105Z,99127.50
2019-05-11T05:38:29.609Z,99129.23
2019-05-11T05:39:08.891Z,99123.59
2019-05-11T05:39:45.212Z,99130.52
2019-05-11T05:40:21.587Z,99129.06
2019-05-11T05:40:57.495Z,99123.31
2019-05-11T05:41:33.141Z,99123.31
2019-05-11T05:42:08.788Z,99119.70
2019-05-11T05:42:45.408Z,99119.70
2019-05-11T05:43:27.257Z,99130.44
2019-05-11T05:43:58.443Z,99129.18
2019-05-11T05:44:34.111Z,99127.89
2019-05-11T05:45:10.139Z,99127.89
2019-05-11T05:45:46.179Z,99131.27
2019-05-11T05:46:21.993Z,99129.24
2019-05-11T05:46:58.173Z,99129.23
2019-05-11T05:47:34.283Z,99131.74
2019-05-11T05:48:09.766Z,99131.41
2019-05-11T05:48:45.920Z,99129.86
2019-05-11T05:49:21.726Z,99136.21
2019-05-11T05:49:57.405Z,99130.55
2019-05-11T05:50:33.239Z,99135.43
2019-05-11T05:51:09.236Z,99131.06
2019-05-11T05:51:44.887Z,99129.69
2019-05-11T05:52:21.159Z,99136.41
2019-05-11T05:52:57.639Z,99134.00
2019-05-11T05:53:33.302Z,99126.43
2019-05-11T05:54:08.949Z,99127.41
2019-05-11T05:54:44.921Z,99134.02
2019-05-11T05:55:20.864Z,99129.30
2019-05-11T05:55:57.495Z,99129.86
2019-05-11T05:56:33.268Z,99129.86
2019-05-11T05:57:09.574Z,99132.53
2019-05-11T05:57:45.079Z,99126.59
2019-05-11T05:58:21.048Z,99130.57
2019-05-11T05:58:56.871Z,99117.52
2019-05-11T05:59:32.762Z,99125.28
2019-05-11T06:00:09.095Z,99119.81
2019-05-11T06:00:44.754Z,99122.25
2019-05-11T06:01:20.793Z,99123.72
2019-05-11T06:01:56.983Z,99127.11
2019-05-11T06:02:34.363Z,99120.25
2019-05-11T06:03:09.997Z,99122.22
2019-05-11T06:03:46.004Z,99109.26
2019-05-11T06:04:21.666Z,99109.26
2019-05-11T06:04:57.156Z,99091.34
2019-05-11T06:05:32.883Z,99118.34
2019-05-11T06:06:08.897Z,99128.58
2019-05-11T06:06:44.957Z,99113.79
2019-05-11T06:07:21.165Z,99127.24
2019-05-11T06:07:57.512Z,99123.70
2019-05-11T06:08:33.179Z,99124.27
2019-05-11T06:09:08.840Z,99126.03
2019-05-11T06:09:44.285Z,99130.83
2019-05-11T06:10:19.978Z,99123.89
2019-05-11T06:10:55.757Z,99126.28
2019-05-11T06:11:31.405Z,99130.53
2019-05-11T06:12:06.880Z,99130.53
2019-05-11T06:12:42.535Z,99132.20
2019-05-11T06:13:18.217Z,99128.40
2019-05-11T06:13:53.978Z,99129.03
2019-05-11T06:14:29.435Z,99127.94
2019-05-11T06:15:05.624Z,99127.94
2019-05-11T06:15:41.628Z,99130.54
2019-05-11T06:16:17.599Z,99126.11
2019-05-11T06:16:53.191Z,99124.06
2019-05-11T06:17:29.171Z,99126.74
2019-05-11T06:18:05.126Z,99130.00
2019-05-11T06:18:41.049Z,99121.75
2019-05-11T06:19:16.593Z,99130.63
2019-05-11T06:19:52.324Z,99125.83
2019-05-11T06:20:28.005Z,99127.41
2019-05-11T06:21:03.676Z,99122.02
2019-05-11T06:21:39.458Z,99117.30
2019-05-11T06:22:15.099Z,99128.05
2019-05-11T06:22:50.803Z,99120.73
2019-05-11T06:23:27.709Z,99123.70
2019-05-11T06:24:06.795Z,99122.31
2019-05-11T06:24:41.193Z,99125.57
2019-05-11T06:25:16.965Z,99119.44
2019-05-11T06:25:52.742Z,99121.19
2019-05-11T06:26:28.228Z,99124.82
2019-05-11T06:27:04.225Z,99121.31
2019-05-11T06:27:40.915Z,99125.11
2019-05-11T06:28:17.011Z,99125.11
2019-05-11T06:28:53.323Z,99127.21
2019-05-11T06:29:29.098Z,99123.33
2019-05-11T06:30:05.086Z,99127.04
2019-05-11T06:30:41.010Z,99128.05
2019-05-11T06:31:17.200Z,99127.03
2019-05-11T06:31:53.744Z,99127.03
2019-05-11T06:32:29.695Z,99126.95
2019-05-11T06:33:05.811Z,99130.00
2019-05-11T06:33:41.385Z,99129.63
2019-05-11T06:34:17.389Z,99132.22
2019-05-11T06:34:53.097Z,99132.04
2019-05-11T06:35:29.357Z,99129.91
2019-05-11T06:36:05.121Z,99132.50
2019-05-11T06:36:41.483Z,99135.47
2019-05-11T06:37:17.150Z,99134.55
2019-05-11T06:37:52.974Z,99133.63
2019-05-11T06:38:28.821Z,99131.95
2019-05-11T06:39:07.715Z,99129.27
2019-05-11T06:39:43.390Z,99132.13
2019-05-11T06:40:19.932Z,99127.41
2019-05-11T06:40:55.595Z,99127.49
2019-05-11T06:41:31.839Z,99126.86
2019-05-11T06:42:07.963Z,99118.42
2019-05-11T06:42:43.599Z,99129.25
2019-05-11T06:43:19.084Z,99129.37
2019-05-11T06:44:01.988Z,99128.16
2019-05-11T06:44:33.795Z,99117.84
2019-05-11T06:45:10.566Z,99124.70
2019-05-11T06:45:46.140Z,99124.34
2019-05-11T06:46:21.969Z,99119.91
2019-05-11T06:46:57.782Z,99121.38
2019-05-11T06:47:34.343Z,99123.25
2019-05-11T06:48:09.918Z,99124.44
2019-05-11T06:48:46.176Z,99125.56
2019-05-11T06:49:22.536Z,99123.80
2019-05-11T06:49:58.210Z,99120.36
2019-05-11T06:50:33.661Z,99131.66
2019-05-11T06:51:10.030Z,99125.38
2019-05-11T06:51:45.754Z,99131.86
2019-05-11T06:52:21.963Z,99129.06
2019-05-11T06:52:57.604Z,99117.32
2019-05-11T06:53:33.622Z,99120.28
2019-05-11T06:54:09.269Z,99120.17
2019-05-11T06:54:44.989Z,99129.53
2019-05-11T06:55:20.985Z,99121.67
2019-05-11T06:55:57.368Z,99120.75
2019-05-11T06:56:33.311Z,99124.91
2019-05-11T06:57:09.347Z,99125.64
2019-05-11T06:57:45.774Z,99133.16
2019-05-11T06:58:22.030Z,99129.91
2019-05-11T06:58:58.202Z,99125.48
2019-05-11T06:59:34.437Z,99130.84
2019-05-11T07:00:10.395Z,99129.45
2019-05-11T07:00:46.651Z,99127.50
2019-05-11T07:01:22.393Z,99126.78
2019-05-11T07:01:59.550Z,99120.09
2019-05-11T07:02:35.359Z,99130.92
2019-05-11T07:03:10.986Z,99122.77